Time;durP1;ratioP1;P1;durP2;ratioP2;P2;SDS_P1;SDS_P2;PMS_P1;PMS_P2;Temp;Humidity;BMP_temperature;BMP_pressure;BME280_temperature;BME280_humidity;BME280_pressure;Samples;Min_cycle;Max_cycle;Signal;HPM_P1;HPM_P2
2023/12/26 00:00:11;;;;;;;4.17;2.47;;;;;;;9.34;100.00;100458.88;5283772;28;20274;-71
2023/12/26 00:02:42;;;;;;;5.05;2.70;;;;;;;9.28;100.00;100473.69;5282335;28;20029;-70
2023/12/26 00:05:13;;;;;;;7.10;3.37;;;;;;;9.26;100.00;100475.44;5284040;28;20043;-70
2023/12/26 00:07:45;;;;;;;5.10;2.63;;;;;;;9.25;100.00;100465.06;5283517;28;20036;-70
2023/12/26 00:10:16;;;;;;;5.13;2.77;;;;;;;9.24;100.00;100465.94;5282676;28;20029;-71
2023/12/26 00:12:48;;;;;;;7.17;3.17;;;;;;;9.22;100.00;100462.50;5284076;28;20097;-70
2023/12/26 00:15:19;;;;;;;6.17;2.70;;;;;;;9.21;100.00;100460.75;5283661;28;20036;-71
2023/12/26 00:17:50;;;;;;;4.70;3.07;;;;;;;9.17;100.00;100470.34;5283472;28;20032;-70
2023/12/26 00:20:22;;;;;;;4.67;2.93;;;;;;;9.16;100.00;100460.84;5283517;28;20024;-71
2023/12/26 00:22:53;;;;;;;6.67;3.17;;;;;;;9.15;100.00;100466.06;5283241;28;20120;-71
2023/12/26 00:25:25;;;;;;;4.87;2.57;;;;;;;9.15;100.00;100460.88;5283508;28;20024;-71
2023/12/26 00:27:56;;;;;;;7.27;2.57;;;;;;;9.09;100.00;100461.78;5283797;28;20115;-71
2023/12/26 00:30:27;;;;;;;4.30;2.80;;;;;;;9.07;100.00;100454.00;5283531;28;20032;-69
2023/12/26 00:32:59;;;;;;;9.17;2.77;;;;;;;9.05;100.00;100455.75;5283170;28;20032;-69
2023/12/26 00:35:30;;;;;;;6.03;3.27;;;;;;;9.06;100.00;100467.00;5283058;28;20056;-70
2023/12/26 00:38:01;;;;;;;6.20;3.00;;;;;;;9.04;100.00;100454.03;5283092;28;20081;-69
2023/12/26 00:40:33;;;;;;;5.70;2.40;;;;;;;9.03;100.00;100460.13;5283049;28;20058;-70
2023/12/26 00:43:04;;;;;;;4.90;2.90;;;;;;;9.00;100.00;100460.16;5282712;28;20112;-70
2023/12/26 00:45:36;;;;;;;4.40;2.70;;;;;;;9.01;100.00;100463.63;5283088;28;20167;-70
2023/12/26 00:48:07;;;;;;;11.77;3.27;;;;;;;9.01;100.00;100474.88;5283452;28;20084;-71
2023/12/26 00:50:41;;;;;;;4.30;2.43;;;;;;;9.00;100.00;100467.97;5283268;28;20035;-71
2023/12/26 00:53:12;;;;;;;4.88;2.80;;;;;;;8.99;100.00;100481.81;5282664;28;20101;-71
2023/12/26 00:55:44;;;;;;;4.37;2.63;;;;;;;9.00;100.00;100477.47;5282258;28;20111;-70
2023/12/26 00:58:15;;;;;;;3.07;2.47;;;;;;;8.98;100.00;100487.91;5282952;28;20033;-70
2023/12/26 01:00:47;;;;;;;3.80;2.07;;;;;;;8.99;100.00;100487.03;5281492;28;20130;-70
2023/12/26 01:03:22;;;;;;;3.10;2.30;;;;;;;8.98;100.00;100485.28;5282449;28;20047;-69
2023/12/26 01:05:53;;;;;;;4.35;2.70;;;;;;;8.99;100.00;100488.78;5281979;28;20379;-71
2023/12/26 01:08:24;;;;;;;5.63;2.67;;;;;;;8.98;100.00;100495.69;5282390;28;20033;-71
2023/12/26 01:10:56;;;;;;;4.63;2.20;;;;;;;8.98;100.00;100490.50;5283243;28;20096;-71
2023/12/26 01:13:34;;;;;;;5.50;2.23;;;;;;;8.99;100.00;100493.97;5282466;28;20028;-71
2023/12/26 01:16:06;;;;;;;5.72;2.47;;;;;;;9.00;100.00;100496.56;5281588;28;20028;-72
2023/12/26 01:18:37;;;;;;;2.65;1.90;;;;;;;8.99;100.00;100497.44;5283117;28;20364;-71
2023/12/26 01:21:09;;;;;;;3.70;2.07;;;;;;;8.99;100.00;100499.19;5264725;28;20028;-72
2023/12/26 01:23:40;;;;;;;5.27;2.30;;;;;;;8.99;100.00;100502.63;5282733;28;20037;-72
2023/12/26 01:26:11;;;;;;;4.20;2.10;;;;;;;8.99;100.00;100497.44;5283135;28;20110;-70
2023/12/26 01:28:43;;;;;;;3.27;2.40;;;;;;;8.99;100.00;100496.56;5282916;28;20213;-71
2023/12/26 01:31:14;;;;;;;4.20;2.27;;;;;;;8.99;100.00;100497.44;5281398;28;20035;-71
2023/12/26 01:33:45;;;;;;;5.27;2.80;;;;;;;8.99;100.00;100494.81;5281102;28;20094;-70
2023/12/26 01:36:17;;;;;;;5.27;3.20;;;;;;;9.01;100.00;100506.06;5282561;28;20391;-69
2023/12/26 01:38:48;;;;;;;4.13;2.60;;;;;;;9.03;100.00;100513.84;5282021;28;20028;-70
2023/12/26 01:41:20;;;;;;;4.40;3.17;;;;;;;9.01;100.00;100513.00;5282530;28;20032;-71
2023/12/26 01:43:51;;;;;;;3.50;2.50;;;;;;;8.99;100.00;100514.78;5282475;28;20052;-71
2023/12/26 01:46:23;;;;;;;4.73;2.90;;;;;;;8.98;100.00;100515.63;5282819;28;20107;-71
2023/12/26 01:48:55;;;;;;;4.57;3.57;;;;;;;8.99;100.00;100512.19;5283004;28;20478;-71
2023/12/26 01:51:28;;;;;;;6.73;4.13;;;;;;;9.00;100.00;100516.47;5282232;28;20036;-71
2023/12/26 01:54:00;;;;;;;6.70;3.90;;;;;;;9.01;100.00;100508.66;5282745;28;20278;-71
2023/12/26 01:56:31;;;;;;;4.00;3.60;;;;;;;8.98;100.00;100534.69;5282020;28;20029;-71
2023/12/26 01:59:02;;;;;;;4.03;3.63;;;;;;;8.99;100.00;100515.63;5280891;28;20119;-71
2023/12/26 02:01:35;;;;;;;3.40;3.10;;;;;;;9.00;100.00;100522.56;5282312;28;20124;-71
2023/12/26 02:04:06;;;;;;;3.38;2.83;;;;;;;9.01;100.00;100528.63;5282233;28;20028;-72
2023/12/26 02:06:39;;;;;;;4.90;3.33;;;;;;;9.01;100.00;100546.81;5282164;28;20035;-72
2023/12/26 02:09:11;;;;;;;3.17;2.88;;;;;;;8.98;100.00;100516.50;5282332;28;20110;-72
2023/12/26 02:11:43;;;;;;;4.37;3.27;;;;;;;8.97;100.00;100525.19;5282587;28;20438;-72
2023/12/26 02:14:14;;;;;;;3.22;2.90;;;;;;;8.98;100.00;100533.84;5282063;28;20207;-71
2023/12/26 02:16:47;;;;;;;4.50;3.00;;;;;;;8.99;100.00;100543.38;5282075;28;20141;-71
2023/12/26 02:19:20;;;;;;;3.92;2.90;;;;;;;8.97;100.00;100539.91;5282180;28;20432;-71
2023/12/26 02:21:51;;;;;;;4.30;2.70;;;;;;;8.99;100.00;100532.97;5280721;28;20025;-71
2023/12/26 02:24:23;;;;;;;4.43;3.10;;;;;;;8.99;100.00;100543.38;5282150;28;20036;-71
2023/12/26 02:26:55;;;;;;;4.87;3.27;;;;;;;8.99;100.00;100539.03;5284363;28;20036;-71
2023/12/26 02:29:28;;;;;;;;;;;;;;;8.96;100.00;100544.25;5286196;28;20416;-71
2023/12/26 02:32:01;;;;;;;4.35;3.28;;;;;;;8.98;100.00;100555.50;5286012;28;19913;-70
2023/12/26 02:34:33;;;;;;;3.80;3.00;;;;;;;9.02;100.00;100553.75;5284206;28;20029;-70
2023/12/26 02:37:04;;;;;;;3.70;2.87;;;;;;;9.01;100.00;100557.22;5286042;28;20071;-71
2023/12/26 02:39:35;;;;;;;6.17;3.30;;;;;;;9.01;100.00;100549.41;5285847;28;20116;-72
2023/12/26 02:42:07;;;;;;;3.77;2.80;;;;;;;9.00;100.00;100545.06;5285954;28;20031;-72
2023/12/26 02:44:38;;;;;;;5.63;3.53;;;;;;;9.00;100.00;100551.16;5285613;28;20036;-72
2023/12/26 02:47:10;;;;;;;3.83;3.00;;;;;;;9.02;100.00;100549.41;5285800;28;20417;-71
2023/12/26 02:49:41;;;;;;;3.57;2.90;;;;;;;9.02;100.00;100549.41;5285737;28;20393;-72
2023/12/26 02:52:13;;;;;;;3.77;3.37;;;;;;;9.01;100.00;100547.66;5284166;28;20029;-71
2023/12/26 02:54:44;;;;;;;4.80;3.10;;;;;;;9.02;100.00;100548.53;5284052;28;20036;-71
2023/12/26 02:57:15;;;;;;;4.90;3.73;;;;;;;9.01;100.00;100552.84;5285100;28;20028;-72
2023/12/26 02:59:47;;;;;;;3.87;3.17;;;;;;;9.01;100.00;100554.59;5285050;28;20029;-73
2023/12/26 03:02:18;;;;;;;4.67;4.00;;;;;;;9.01;100.00;100552.00;5283978;28;20035;-72
2023/12/26 03:04:50;;;;;;;5.33;4.53;;;;;;;8.99;100.00;100559.81;5285718;28;20040;-72
2023/12/26 03:07:21;;;;;;;5.10;4.40;;;;;;;9.01;100.00;100559.81;5285397;28;20036;-72
2023/12/26 03:09:53;;;;;;;5.30;4.80;;;;;;;9.00;100.00;100568.47;5285357;28;20090;-72
2023/12/26 03:12:24;;;;;;;7.17;5.00;;;;;;;9.03;100.00;100584.06;5283744;28;20044;-72
2023/12/26 03:14:55;;;;;;;6.10;4.77;;;;;;;9.01;100.00;100601.41;5285066;28;20475;-72
2023/12/26 03:17:27;;;;;;;7.63;5.33;;;;;;;9.02;100.00;100591.00;5284985;28;20060;-72
2023/12/26 03:19:58;;;;;;;6.97;4.40;;;;;;;9.05;100.00;100595.31;5284915;28;20028;-72
2023/12/26 03:22:29;;;;;;;6.23;3.90;;;;;;;9.01;100.00;100589.25;5284278;28;20056;-72
2023/12/26 03:25:01;;;;;;;7.53;4.17;;;;;;;8.98;100.00;100596.25;5284648;28;20046;-72
2023/12/26 03:27:32;;;;;;;8.20;4.27;;;;;;;8.95;100.00;100610.09;5285081;28;20036;-71
2023/12/26 03:30:04;;;;;;;7.10;5.20;;;;;;;8.90;100.00;100609.28;5284959;28;20086;-71
2023/12/26 03:32:36;;;;;;;6.47;4.00;;;;;;;8.88;100.00;100598.91;5284521;28;20040;-71
2023/12/26 03:35:09;;;;;;;7.40;4.97;;;;;;;8.83;100.00;100599.84;5284094;28;20025;-71
2023/12/26 03:37:40;;;;;;;6.28;4.88;;;;;;;8.88;100.00;100600.66;5284166;28;20075;-72
2023/12/26 03:40:13;;;;;;;9.30;5.40;;;;;;;8.84;100.00;100604.16;5284643;28;20444;-71
2023/12/26 03:42:45;;;;;;;6.70;4.75;;;;;;;8.85;100.00;100603.28;5284342;28;20090;-72
2023/12/26 03:45:17;;;;;;;7.63;4.80;;;;;;;8.81;100.00;100606.81;5283205;28;20029;-72
2023/12/26 03:47:48;;;;;;;6.87;3.90;;;;;;;8.82;100.00;100600.69;5284828;28;20282;-72
2023/12/26 03:50:20;;;;;;;6.60;4.67;;;;;;;8.79;100.00;100613.72;5284026;28;20475;-72
2023/12/26 03:52:52;;;;;;;7.25;4.78;;;;;;;8.80;100.00;100613.72;5284129;28;20115;-72
2023/12/26 03:55:23;;;;;;;7.73;4.63;;;;;;;8.79;100.00;100603.31;5283946;28;20456;-72
2023/12/26 03:57:55;;;;;;;7.83;4.20;;;;;;;8.82;100.00;100614.56;5282551;28;20426;-72
2023/12/26 04:00:28;;;;;;;7.27;4.57;;;;;;;8.81;100.00;100618.03;5283852;28;20363;-72
2023/12/26 04:02:59;;;;;;;10.00;4.13;;;;;;;8.83;100.00;100629.28;5283892;28;20032;-72
2023/12/26 04:05:30;;;;;;;5.00;3.67;;;;;;;8.82;100.00;100624.09;5283967;28;20033;-72
2023/12/26 04:08:03;;;;;;;7.20;4.33;;;;;;;8.85;100.00;100619.72;5283932;28;20075;-72
2023/12/26 04:10:35;;;;;;;9.88;3.90;;;;;;;8.84;100.00;100646.63;5282625;28;20031;-71
2023/12/26 04:13:06;;;;;;;9.13;4.23;;;;;;;8.91;100.00;100665.63;5283762;28;20036;-72
2023/12/26 04:15:38;;;;;;;9.37;3.80;;;;;;;8.87;100.00;100663.91;5283917;28;20105;-72
2023/12/26 04:18:09;;;;;;;9.37;3.37;;;;;;;8.91;100.00;100655.22;5283646;28;20364;-72
2023/12/26 04:20:40;;;;;;;9.97;3.23;;;;;;;8.96;100.00;100660.38;5283661;28;20120;-71
2023/12/26 04:23:12;;;;;;;11.23;4.10;;;;;;;8.95;100.00;100654.31;5283727;28;20040;-72
2023/12/26 04:25:43;;;;;;;8.60;3.00;;;;;;;8.93;100.00;100653.47;5283760;28;20040;-72
2023/12/26 04:28:15;;;;;;;9.23;2.77;;;;;;;9.01;100.00;100667.25;5283533;28;20450;-72
2023/12/26 04:30:48;;;;;;;11.03;2.83;;;;;;;9.05;100.00;100665.53;5283257;28;20029;-73
2023/12/26 04:33:20;;;;;;;5.88;2.65;;;;;;;9.07;100.00;100671.56;5283569;28;20084;-72
2023/12/26 04:35:51;;;;;;;9.97;2.37;;;;;;;8.96;100.00;100671.63;5283357;28;20091;-72
2023/12/26 04:38:23;;;;;;;14.53;3.00;;;;;;;8.97;100.00;100664.69;5283293;28;20041;-72
2023/12/26 04:40:54;;;;;;;9.33;2.47;;;;;;;9.06;100.00;100669.81;5283219;28;20055;-72
2023/12/26 04:43:25;;;;;;;7.50;2.97;;;;;;;9.08;100.00;100674.16;5283588;28;20031;-72
2023/12/26 04:45:57;;;;;;;11.43;2.83;;;;;;;9.06;100.00;100701.03;5283278;28;20083;-72
2023/12/26 04:48:28;;;;;;;11.93;2.93;;;;;;;9.00;100.00;100698.47;5282493;28;20422;-72
2023/12/26 04:51:00;;;;;;;15.63;3.77;;;;;;;8.92;100.00;100714.16;5283380;28;20527;-72
2023/12/26 04:53:32;;;;;;;11.90;2.20;;;;;;;8.81;100.00;100705.56;5283052;28;20028;-72
2023/12/26 04:56:03;;;;;;;7.93;2.17;;;;;;;8.78;100.00;100714.22;5282781;28;20040;-72
2023/12/26 04:58:35;;;;;;;13.23;3.30;;;;;;;8.86;100.00;100709.84;5282865;28;20447;-72
2023/12/26 05:01:06;;;;;;;7.27;2.50;;;;;;;8.89;100.00;100733.22;5282511;28;20028;-72
2023/12/26 05:03:38;;;;;;;10.20;2.63;;;;;;;8.75;100.00;100728.09;5282344;28;20032;-72
2023/12/26 05:06:09;;;;;;;9.10;3.27;;;;;;;8.75;100.00;100735.91;5282868;28;20116;-72
2023/12/26 05:08:40;;;;;;;9.43;3.00;;;;;;;8.59;100.00;100744.66;5283226;28;20044;-73
2023/12/26 05:11:22;;;;;;;10.70;3.33;;;;;;;8.62;100.00;100747.25;5281548;28;20036;-72
2023/12/26 05:13:53;;;;;;;10.60;3.22;;;;;;;8.74;100.00;100752.38;5283106;28;20028;-72
2023/12/26 05:16:25;;;;;;;10.13;3.13;;;;;;;8.67;100.00;100744.63;5282310;28;20036;-72
2023/12/26 05:18:56;;;;;;;9.63;2.60;;;;;;;8.78;100.00;100752.38;5282615;28;20067;-72
2023/12/26 05:21:27;;;;;;;11.00;2.93;;;;;;;8.71;100.00;100747.19;5282624;28;20032;-72
2023/12/26 05:23:59;;;;;;;14.03;4.03;;;;;;;8.63;100.00;100755.91;5282236;28;20183;-73
2023/12/26 05:26:40;;;;;;;6.13;2.53;;;;;;;8.62;100.00;100782.75;5282940;28;20037;-72
2023/12/26 05:29:12;;;;;;;10.88;2.95;;;;;;;8.57;100.00;100772.41;5282425;28;20031;-71
2023/12/26 05:31:44;;;;;;;9.80;2.80;;;;;;;8.47;100.00;100781.06;5282293;28;20511;-72
2023/12/26 05:34:16;;;;;;;9.63;2.88;;;;;;;8.48;100.00;100769.84;5282260;28;20039;-72
2023/12/26 05:36:48;;;;;;;10.68;2.60;;;;;;;8.35;100.00;100784.56;5282702;28;20049;-72
2023/12/26 05:39:20;;;;;;;12.13;3.23;;;;;;;8.38;100.00;100790.59;5282231;28;20036;-72
2023/12/26 05:41:51;;;;;;;12.70;3.47;;;;;;;8.33;100.00;100791.50;5281040;28;20043;-71
2023/12/26 05:44:23;;;;;;;11.07;2.97;;;;;;;8.28;100.00;100793.25;5282502;28;20032;-71
2023/12/26 05:46:54;;;;;;;11.33;2.60;;;;;;;8.28;100.00;100788.06;5282815;28;20101;-72
2023/12/26 05:49:25;;;;;;;11.87;2.20;;;;;;;8.20;100.00;100804.53;5282717;28;20107;-72
2023/12/26 05:51:57;;;;;;;9.03;2.93;;;;;;;8.24;100.00;100826.16;5282240;28;20498;-73
2023/12/26 05:54:28;;;;;;;7.67;2.33;;;;;;;8.15;100.00;100828.78;5282748;28;20115;-72
2023/12/26 05:56:59;;;;;;;12.53;3.20;;;;;;;8.07;100.00;100843.53;5281203;28;20145;-71
2023/12/26 05:59:31;;;;;;;6.20;3.57;;;;;;;8.18;100.00;100847.81;5282558;28;20032;-72
2023/12/26 06:02:02;;;;;;;9.87;2.90;;;;;;;8.01;100.00;100850.41;5285036;28;20082;-71
2023/12/26 06:04:34;;;;;;;11.00;2.50;;;;;;;7.93;100.00;100859.94;5286853;28;20036;-70
2023/12/26 06:07:05;;;;;;;8.77;2.13;;;;;;;7.88;100.00;100858.25;5286028;28;20063;-71
2023/12/26 06:09:36;;;;;;;12.07;2.13;;;;;;;7.75;100.00;100862.56;5286526;28;20032;-70
2023/12/26 06:12:08;;;;;;;11.30;2.60;;;;;;;7.82;100.00;100867.75;5286492;28;20067;-70
2023/12/26 06:14:39;;;;;;;10.53;2.43;;;;;;;7.82;100.00;100859.09;5286574;28;20070;-71
2023/12/26 06:17:11;;;;;;;8.03;3.50;;;;;;;7.76;100.00;100872.06;5286084;28;20025;-71
2023/12/26 06:19:42;;;;;;;8.40;3.07;;;;;;;7.63;100.00;100882.44;5285855;28;20036;-72
2023/12/26 06:22:13;;;;;;;12.03;2.67;;;;;;;7.69;100.00;100886.78;5286002;28;20415;-72
2023/12/26 06:24:45;;;;;;;13.60;3.17;;;;;;;7.56;100.00;100892.81;5285947;28;20028;-72
2023/12/26 06:27:16;;;;;;;8.17;2.30;;;;;;;7.49;100.00;100899.72;5285889;28;20066;-72
2023/12/26 06:29:47;;;;;;;7.73;2.93;;;;;;;7.56;100.00;100911.84;5286002;28;20037;-71
2023/12/26 06:32:19;;;;;;;9.17;2.33;;;;;;;7.49;100.00;100913.56;5285926;28;20029;-71
2023/12/26 06:34:50;;;;;;;14.03;3.40;;;;;;;7.46;100.00;100923.91;5286108;28;20025;-70
2023/12/26 06:37:22;;;;;;;8.67;2.43;;;;;;;7.40;100.00;100928.22;5283910;28;20511;-71
2023/12/26 06:39:53;;;;;;;9.43;3.10;;;;;;;7.37;100.00;100925.63;5285541;28;20024;-71
2023/12/26 06:42:24;;;;;;;8.20;2.20;;;;;;;7.26;100.00;100921.28;5284690;28;20464;-71
2023/12/26 06:44:56;;;;;;;12.00;3.10;;;;;;;7.25;100.00;100918.69;5285301;28;20032;-71
2023/12/26 06:47:27;;;;;;;21.40;2.93;;;;;;;7.25;100.00;100919.53;5285650;28;20033;-71
2023/12/26 06:49:59;;;;;;;10.80;2.80;;;;;;;7.23;100.00;100921.28;5285426;28;20112;-70
2023/12/26 06:52:30;;;;;;;17.00;3.67;;;;;;;7.14;100.00;100918.66;5285317;28;20029;-70
2023/12/26 06:55:01;;;;;;;8.37;2.50;;;;;;;7.04;100.00;100917.75;5284075;28;20123;-71
2023/12/26 06:57:33;;;;;;;11.77;2.90;;;;;;;7.04;100.00;100917.75;5285289;28;20036;-70
2023/12/26 07:00:05;;;;;;;15.00;2.80;;;;;;;7.04;100.00;100928.13;5284945;28;20491;-71
2023/12/26 07:02:36;;;;;;;16.17;2.88;;;;;;;7.02;100.00;100918.59;5285016;28;20125;-70
2023/12/26 07:05:08;;;;;;;7.10;2.60;;;;;;;6.97;100.00;100928.97;5284968;28;20076;-71
2023/12/26 07:07:39;;;;;;;7.43;2.60;;;;;;;7.06;100.00;100936.75;5285297;28;20044;-71
2023/12/26 07:10:10;;;;;;;5.07;2.03;;;;;;;7.02;100.00;100944.50;5284481;28;20067;-71
2023/12/26 07:12:42;;;;;;;7.57;2.23;;;;;;;7.08;100.00;100962.69;5284058;28;20359;-70
2023/12/26 07:15:13;;;;;;;15.30;3.07;;;;;;;7.05;100.00;100967.84;5285055;28;20071;-70
2023/12/26 07:17:45;;;;;;;8.13;2.33;;;;;;;7.03;100.00;100974.75;5284375;28;20041;-71
2023/12/26 07:20:16;;;;;;;10.20;2.63;;;;;;;6.97;100.00;100983.38;5284784;28;20055;-70
2023/12/26 07:22:47;;;;;;;7.13;2.47;;;;;;;7.00;100.00;100992.88;5284666;28;20032;-70
2023/12/26 07:25:19;;;;;;;12.13;3.70;;;;;;;7.03;100.00;100992.91;5284536;28;20426;-75
2023/12/26 07:27:50;;;;;;;10.50;2.50;;;;;;;7.01;100.00;101005.00;5284457;28;20063;-71
2023/12/26 07:30:23;;;;;;;7.63;3.03;;;;;;;7.06;100.00;101008.47;5283363;28;20029;-70
2023/12/26 07:32:54;;;;;;;6.63;2.97;;;;;;;7.12;100.00;101006.78;5284290;28;20182;-70
2023/12/26 07:35:25;;;;;;;7.80;2.33;;;;;;;7.19;100.00;101004.22;5284115;28;20135;-70
2023/12/26 07:37:57;;;;;;;14.60;3.40;;;;;;;7.17;100.00;100999.03;5283353;28;20029;-70
2023/12/26 07:40:30;;;;;;;14.17;2.93;;;;;;;7.14;100.00;100996.41;5283028;28;20029;-70
2023/12/26 07:43:01;;;;;;;;;;;;;;;7.18;100.00;101012.84;5284707;28;20028;-71
2023/12/26 07:45:32;;;;;;;10.18;2.90;;;;;;;7.27;100.00;101013.75;5284135;28;19923;-71
2023/12/26 07:48:05;;;;;;;8.73;2.60;;;;;;;7.28;100.00;101028.47;5283953;28;20082;-71
2023/12/26 07:50:37;;;;;;;13.88;3.22;;;;;;;7.25;100.00;101025.00;5282443;28;20040;-71
2023/12/26 07:53:08;;;;;;;15.83;3.70;;;;;;;7.19;100.00;101037.94;5284123;28;20078;-70
2023/12/26 07:55:39;;;;;;;8.10;2.73;;;;;;;7.17;100.00;101043.09;5284265;28;20503;-71
2023/12/26 07:58:11;;;;;;;16.40;3.77;;;;;;;7.10;100.00;101047.41;5283778;28;20352;-70
2023/12/26 08:00:44;;;;;;;9.73;2.93;;;;;;;7.02;100.00;101054.25;5283384;28;20036;-72
2023/12/26 08:03:15;;;;;;;;;;;;;;;6.92;100.00;101065.41;5284545;28;20028;-72
2023/12/26 08:05:47;;;;;;;15.43;3.97;;;;;;;6.98;100.00;101069.78;5283846;28;19912;-71
2023/12/26 08:08:18;;;;;;;10.77;3.00;;;;;;;6.91;100.00;101064.53;5283268;28;20486;-72
2023/12/26 08:10:49;;;;;;;8.60;2.23;;;;;;;6.90;100.00;101061.94;5284378;28;20123;-71
2023/12/26 08:13:21;;;;;;;12.53;2.80;;;;;;;6.90;100.00;101067.97;5283832;28;20056;-72
2023/12/26 08:15:52;;;;;;;15.30;3.77;;;;;;;6.88;100.00;101066.25;5284153;28;20021;-72
2023/12/26 08:18:24;;;;;;;15.03;3.80;;;;;;;6.84;100.00;101075.75;5283565;28;20147;-72
2023/12/26 08:20:55;;;;;;;13.40;2.60;;;;;;;6.81;100.00;101086.09;5283808;28;20016;-72
2023/12/26 08:23:26;;;;;;;11.87;2.83;;;;;;;6.85;100.00;101077.47;5281408;28;20033;-71
2023/12/26 08:25:58;;;;;;;10.13;2.60;;;;;;;6.81;100.00;101082.59;5281873;28;20525;-71
2023/12/26 08:28:29;;;;;;;13.83;2.97;;;;;;;6.82;100.00;101089.53;5283172;28;20456;-71
2023/12/26 08:31:01;;;;;;;8.63;4.13;;;;;;;6.84;100.00;101104.25;5283752;28;20422;-72
2023/12/26 08:33:35;;;;;;;13.13;3.53;;;;;;;6.88;100.00;101102.53;5283239;28;20036;-71
2023/12/26 08:36:06;;;;;;;11.00;3.10;;;;;;;6.93;100.00;101112.06;5283144;28;20056;-72
2023/12/26 08:38:39;;;;;;;8.37;2.20;;;;;;;6.94;100.00;101118.13;5283171;28;20127;-71
2023/12/26 08:41:13;;;;;;;12.45;3.28;;;;;;;7.02;100.00;101126.84;5282765;28;20116;-72
2023/12/26 08:43:44;;;;;;;10.85;2.38;;;;;;;6.99;100.00;101125.91;5281724;28;20029;-71
2023/12/26 08:46:16;;;;;;;14.40;3.40;;;;;;;6.98;100.00;101134.56;5283302;28;20464;-72
2023/12/26 08:48:48;;;;;;;15.82;4.32;;;;;;;7.02;100.00;101149.28;5283644;28;20029;-74
2023/12/26 08:51:19;;;;;;;8.90;3.03;;;;;;;6.97;100.00;101154.44;5283435;28;20037;-72
2023/12/26 08:53:52;;;;;;;15.00;2.97;;;;;;;7.00;100.00;101158.78;5283185;28;20050;-71
2023/12/26 08:56:24;;;;;;;15.32;4.03;;;;;;;7.01;100.00;101161.38;5281181;28;20028;-72
2023/12/26 08:58:56;;;;;;;13.20;4.85;;;;;;;7.07;100.00;101155.38;5282951;28;20028;-71
2023/12/26 09:01:27;;;;;;;13.10;4.10;;;;;;;7.09;100.00;101151.06;5283096;28;20518;-71
2023/12/26 09:03:59;;;;;;;17.93;4.20;;;;;;;7.14;100.00;101151.97;5282515;28;20104;-72
2023/12/26 09:06:31;;;;;;;14.40;3.43;;;;;;;7.20;100.00;101159.81;5283027;28;20448;-71
2023/12/26 09:09:02;;;;;;;13.10;2.83;;;;;;;7.34;100.00;101172.88;5283041;28;20283;-72
2023/12/26 09:11:34;;;;;;;14.70;4.17;;;;;;;7.65;100.00;101184.28;5282200;28;20024;-72
2023/12/26 09:14:05;;;;;;;9.87;2.60;;;;;;;7.97;100.00;101193.97;5281065;28;20111;-72
2023/12/26 09:16:37;;;;;;;10.97;3.17;;;;;;;8.12;100.00;101197.50;5282706;28;20029;-72
2023/12/26 09:19:08;;;;;;;12.97;3.20;;;;;;;8.21;100.00;101194.91;5282429;28;20479;-73
2023/12/26 09:21:39;;;;;;;11.60;3.07;;;;;;;8.37;100.00;101188.94;5282664;28;20029;-71
2023/12/26 09:24:11;;;;;;;12.27;3.70;;;;;;;8.34;100.00;101199.31;5282826;28;20068;-72
2023/12/26 09:26:42;;;;;;;9.10;3.17;;;;;;;8.38;100.00;101205.38;5281381;28;20031;-72
2023/12/26 09:29:13;;;;;;;11.10;2.93;;;;;;;8.35;100.00;101210.56;5282363;28;20496;-73
2023/12/26 09:31:45;;;;;;;10.40;3.37;;;;;;;8.20;100.00;101219.16;5282762;28;20477;-72
2023/12/26 09:34:16;;;;;;;15.37;3.27;;;;;;;8.04;100.00;101219.09;5282519;28;20036;-72
2023/12/26 09:36:48;;;;;;;16.27;4.40;;;;;;;8.04;100.00;101226.03;5282299;28;20051;-71
2023/12/26 09:39:19;;;;;;;10.43;3.17;;;;;;;8.16;100.00;101232.97;5282605;28;20115;-72
2023/12/26 09:41:55;;;;;;;14.87;4.33;;;;;;;8.13;100.00;101240.75;5282756;28;20381;-71
2023/12/26 09:44:27;;;;;;;14.65;3.25;;;;;;;8.03;100.00;101253.72;5282112;28;20127;-70
2023/12/26 09:46:59;;;;;;;12.93;3.63;;;;;;;7.91;100.00;101255.38;5282072;28;20081;-71
2023/12/26 09:49:30;;;;;;;14.30;4.47;;;;;;;7.74;100.00;101260.44;5282533;28;20025;-72
2023/12/26 09:52:05;;;;;;;14.93;3.40;;;;;;;7.62;100.00;101258.66;5281366;28;20082;-72
2023/12/26 09:54:42;;;;;;;17.73;4.97;;;;;;;7.53;100.00;101259.44;5282091;28;20310;-72
2023/12/26 09:57:14;;;;;;;15.45;3.83;;;;;;;7.42;100.00;101261.97;5282615;28;20128;-72
2023/12/26 09:59:47;;;;;;;14.18;4.15;;;;;;;7.44;100.00;101274.97;5281105;28;20033;-71
2023/12/26 10:02:18;;;;;;;15.10;4.13;;;;;;;7.41;100.00;101274.94;5282565;28;20108;-72
2023/12/26 10:04:50;;;;;;;15.60;3.77;;;;;;;7.40;100.00;101279.22;5282612;28;20037;-71
2023/12/26 10:07:21;;;;;;;10.23;3.23;;;;;;;7.51;100.00;101291.44;5282795;28;20025;-72
2023/12/26 10:09:54;;;;;;;13.20;3.50;;;;;;;7.66;100.00;101292.44;5281957;28;20115;-72
2023/12/26 10:12:34;;;;;;;15.63;4.57;;;;;;;7.99;100.00;101296.09;5282797;28;20050;-72
2023/12/26 10:15:05;;;;;;;17.25;3.80;;;;;;;8.33;100.00;101301.47;5282178;28;20033;-72
2023/12/26 10:17:39;;;;;;;13.80;3.40;;;;;;;8.50;100.00;101298.09;5282000;28;20032;-73
2023/12/26 10:20:14;;;;;;;13.57;3.83;;;;;;;8.69;99.34;101304.25;5280688;28;20385;-72
2023/12/26 10:22:46;;;;;;;11.90;4.80;;;;;;;8.87;98.10;101308.63;5282031;28;20180;-72
2023/12/26 10:25:18;;;;;;;16.17;3.60;;;;;;;8.99;97.45;101320.81;5282114;28;20066;-71
2023/12/26 10:27:54;;;;;;;11.13;2.67;;;;;;;9.35;97.46;101319.13;5281710;28;20480;-72
2023/12/26 10:30:26;;;;;;;11.02;3.92;;;;;;;9.31;94.30;101323.44;5280562;28;20119;-73
2023/12/26 10:33:01;;;;;;;13.83;4.07;;;;;;;9.48;94.60;101337.34;5281593;28;20425;-72
2023/12/26 10:35:33;;;;;;;12.43;4.20;;;;;;;9.47;92.63;101330.41;5281539;28;20108;-71
2023/12/26 10:38:04;;;;;;;12.50;3.50;;;;;;;9.57;93.29;101338.22;5282178;28;20250;-72
2023/12/26 10:40:36;;;;;;;16.47;4.83;;;;;;;9.45;92.39;101316.53;5281943;28;20127;-72
2023/12/26 10:43:07;;;;;;;17.43;4.13;;;;;;;9.86;93.46;101322.56;5281916;28;20032;-72
2023/12/26 10:45:39;;;;;;;10.87;2.70;;;;;;;10.21;92.78;101325.13;5281827;28;20369;-72
2023/12/26 10:48:12;;;;;;;15.13;3.80;;;;;;;10.23;89.71;101314.69;5282605;28;20037;-71
2023/12/26 10:50:44;;;;;;;12.90;3.47;;;;;;;10.30;88.26;101316.38;5284094;28;20199;-72
2023/12/26 10:53:21;;;;;;;10.32;3.22;;;;;;;10.52;89.02;101316.38;5286116;28;20068;-72
2023/12/26 10:55:54;;;;;;;9.65;3.30;;;;;;;10.38;85.18;101324.22;5285650;28;20024;-72
2023/12/26 10:58:29;;;;;;;16.33;3.65;;;;;;;10.62;84.82;101318.03;5285269;28;20532;-72
2023/12/26 13:51:27;;;;;;;13.40;3.92;;;;;;;8.76;94.36;101488.81;5282344;28;20028;-72
2023/12/26 13:53:59;;;;;;;12.68;3.40;;;;;;;8.67;93.42;101496.56;5282149;28;20028;-71
2023/12/26 13:56:30;;;;;;;12.77;3.77;;;;;;;8.69;93.37;101501.78;5282172;28;20448;-71
2023/12/26 13:59:02;;;;;;;7.10;2.77;;;;;;;8.66;92.42;101497.44;5281593;28;20108;-71
2023/12/26 14:01:34;;;;;;;12.02;4.00;;;;;;;8.66;92.74;101501.75;5280777;28;20425;-72
2023/12/26 14:04:05;;;;;;;19.80;4.07;;;;;;;8.64;92.87;101501.72;5281968;28;20040;-72
2023/12/26 14:06:36;;;;;;;9.17;3.90;;;;;;;8.68;92.54;101505.25;5282824;28;20333;-72
2023/12/26 14:09:08;;;;;;;19.60;4.30;;;;;;;8.66;92.47;101509.53;5281771;28;20040;-72
2023/12/26 14:11:39;;;;;;;13.90;3.53;;;;;;;8.64;92.27;101516.47;5281891;28;20040;-72
2023/12/26 14:14:10;;;;;;;12.10;4.10;;;;;;;8.62;91.54;101531.19;5281809;28;20476;-72
2023/12/26 14:16:42;;;;;;;13.17;4.90;;;;;;;8.59;91.82;101521.63;5281951;28;20028;-72
2023/12/26 14:19:13;;;;;;;14.23;3.70;;;;;;;8.57;91.98;101525.97;5281262;28;20036;-71
2023/12/26 14:21:44;;;;;;;13.17;3.70;;;;;;;8.52;91.97;101525.91;5282568;28;20050;-71
2023/12/26 14:24:16;;;;;;;13.50;3.57;;;;;;;8.50;91.81;101527.66;5285847;28;20032;-72
2023/12/26 14:26:48;;;;;;;12.97;5.07;;;;;;;8.46;92.52;101533.66;5286131;28;20035;-73
2023/12/26 14:29:19;;;;;;;16.63;3.83;;;;;;;8.38;93.32;101545.69;5285668;28;20149;-72
2023/12/26 14:31:50;;;;;;;9.97;4.37;;;;;;;8.34;94.48;101557.78;5284246;28;20081;-72
2023/12/26 14:34:22;;;;;;;11.97;4.50;;;;;;;8.32;95.84;101561.22;5285331;28;20415;-72